Grisdale, Washington
Current Conditions -  °F | °C
As of 8:53 PM on Friday 24 Oct 2014 (Local Time) from KSHN Reporting Station
Moderate Rain Moderate Rain  
Wind Chill: 50°   Ceiling: 5500
Heat Index: 50°   Visibility: 5mi
Dew Point: 47°   Wind: 7mph
Humidity: 89%   Direction: 20°NNE
Pressure: 29.82"   Gusts: NA
Location:  47.555°N, 123.746°W
Report Text: KSHN 250353Z AUTO 02006KT 5SM RA BR OVC055 10/08 A2982 RMK AO2 SLP099 P0007 T01000083 TSNO
Loading
Personal Weather Stations






























Interactive Weather Map New forecast layout! Learn more

10-Day Weather Forecast

Advertisements
Track Severe Weather on mobile